Pagrindinis puslapis
METAR-TAF:

METAR-TAF

Oro uostai :

Liuleo, Švedija

platuma: 65-33N, ilguma: 022-08E, Aukštis: 17 m

Dabartinis oras

Ataskaita buvo paskelbta 39 minutes, ne 09:20 UTC
Vėjas 3 kt iš Pietų/Pietvakarių
Temperatūra -2°C
Drėgmė 93%
Slėgis 975 hPa
Matomumas 10 km arba daugiau
nėra debesų žemiau 1500 m ir nėra kamuolinių lietaus debesų

METAR: ESPA 180920Z 20003KT CAVOK M02/M03 Q0975

Laikas: 10:59 (09:59 UTC)

Prognozė

Ataskaita buvo paskelbta 1 valandą ir 29 minutes, ne 08:30 UTC
Prognozė galioja nuo 18 metu 09 UTC su 18 metu 18 UTC
Vėjas 2 kt nuo kintamojo kryptimis
Matomumas 10 km arba daugiau
nėra debesų žemiau 1500 m ir nėra kamuolinių lietaus debesų
Tapsmas
nuo 18 metu 16 UTC su 18 metu 18 UTC
Vėjas 10 kt iš Vakarų/Pietvakarių

TAF: ESPA 180830Z 1809/1818 VRB02KT CAVOK BECMG 1816/1818 25010KT RMK MIL

Orai ataskaitas ir orų prognozės (METAR, TAF).

turimą stotys yra geltonos ir raudonos taškus žemėlapyje.

Perkelti pele per norėdami pamatyti stoties vardą.

Tada spustelėkite, norėdami matyti oro stebėjimo ir prognozės.

Norėdami pakeisti žemėlapį: spustelėkite ant žalios mygtukų su juodo kryžiaus žemyn,; žalią mygtuką su brūkšneliu, jei norite nutolinti; arba žalių rodyklių gretimoms žemėlapius.


METAR-TAF: